Time,TemperatureF,DewpointF,PressureIn,WindDirection,WindDirectionDegrees,WindSpeedMPH,WindSpeedGustMPH,Humidity,HourlyPrecipIn,Conditions,Clouds,dailyrainin,SoftwareType,DateUTC
2013-10-06 00:00:00,33.9,31.8,30.20,ESE,121,0.0,0.0,92,0.00,,,0.00,Wunderground v.1.13,2013-10-06 04:00:00,
2013-10-06 00:30:00,32.6,30.5,30.20,East,94,0.0,0.0,92,0.00,,,0.00,Wunderground v.1.13,2013-10-06 04:30:00,
2013-10-06 01:00:00,31.5,30.0,30.21,East,94,0.0,0.0,94,0.00,,,0.00,Wunderground v.1.13,2013-10-06 05:00:00,
2013-10-06 01:30:00,31.1,30.1,30.21,East,94,0.0,0.0,96,0.00,,,0.00,Wunderground v.1.13,2013-10-06 05:30:00,
2013-10-06 02:00:00,31.3,30.3,30.22,East,94,0.0,0.0,96,0.00,,,0.00,Wunderground v.1.13,2013-10-06 06:00:00,
2013-10-06 02:30:00,31.9,30.9,30.21,East,94,0.0,0.0,96,0.00,,,0.00,Wunderground v.1.13,2013-10-06 06:30:00,
2013-10-06 03:00:00,31.3,30.3,30.22,East,94,0.0,1.0,96,0.00,,,0.00,Wunderground v.1.13,2013-10-06 07:00:00,
2013-10-06 03:30:00,30.7,29.7,30.22,East,94,0.0,0.0,96,0.00,,,0.00,Wunderground v.1.13,2013-10-06 07:30:00,
2013-10-06 04:00:00,30.1,29.1,30.22,East,94,0.0,0.0,96,0.00,,,0.00,Wunderground v.1.13,2013-10-06 08:00:00,
2013-10-06 04:30:00,29.6,28.6,30.23,East,94,0.0,0.0,96,0.00,,,0.00,Wunderground v.1.13,2013-10-06 08:30:00,
2013-10-06 05:00:00,29.3,28.6,30.23,East,94,0.0,0.0,97,0.00,,,0.00,Wunderground v.1.13,2013-10-06 09:00:00,
2013-10-06 05:30:00,28.9,28.2,30.24,East,94,0.0,0.0,97,0.00,,,0.00,Wunderground v.1.13,2013-10-06 09:30:00,
2013-10-06 06:00:00,28.5,27.8,30.25,East,94,0.0,0.0,97,0.00,,,0.00,Wunderground v.1.13,2013-10-06 10:00:00,
2013-10-06 06:30:00,28.9,28.2,30.26,East,94,0.0,0.0,97,0.00,,,0.00,Wunderground v.1.13,2013-10-06 10:30:00,
2013-10-06 07:00:00,28.8,28.1,30.26,East,94,0.0,0.0,97,0.00,,,0.00,Wunderground v.1.13,2013-10-06 11:00:00,
2013-10-06 07:30:00,28.6,27.9,30.26,East,94,0.0,0.0,97,0.00,,,0.00,Wunderground v.1.13,2013-10-06 11:30:00,
2013-10-06 08:30:00,32.2,32.0,30.28,East,94,0.0,0.0,99,0.00,,,0.00,Wunderground v.1.13,2013-10-06 12:30:00,
2013-10-06 09:00:00,36.2,35.9,30.28,East,94,0.0,0.0,99,0.00,,,0.00,Wunderground v.1.13,2013-10-06 13:00:00,
2013-10-06 09:30:00,40.6,37.0,30.29,ESE,116,0.0,0.0,87,0.00,,,0.00,Wunderground v.1.13,2013-10-06 13:30:00,
2013-10-06 10:00:00,43.8,37.7,30.29,SSE,163,0.0,2.0,79,0.00,,,0.01,Wunderground v.1.13,2013-10-06 14:00:00,
2013-10-06 10:30:00,46.6,37.7,30.29,SSE,160,1.0,1.0,71,0.00,,,0.01,Wunderground v.1.13,2013-10-06 14:30:00,
2013-10-06 11:00:00,48.6,35.7,30.28,SSE,160,1.0,1.0,61,0.00,,,0.01,Wunderground v.1.13,2013-10-06 15:00:00,
2013-10-06 11:30:00,50.9,35.3,30.27,NNE,22,1.0,1.0,55,0.00,,,0.01,Wunderground v.1.13,2013-10-06 15:30:00,
2013-10-06 12:00:00,52.3,33.2,30.27,SSE,155,1.0,1.0,48,0.00,,,0.01,Wunderground v.1.13,2013-10-06 16:00:00,
2013-10-06 12:30:00,54.3,34.5,30.26,SSW,198,0.0,0.0,47,0.00,,,0.01,Wunderground v.1.13,2013-10-06 16:30:00,
2013-10-06 13:00:00,55.4,33.3,30.25,NNE,29,0.0,0.0,43,0.00,,,0.01,Wunderground v.1.13,2013-10-06 17:00:00,
2013-10-06 13:30:00,56.4,35.3,30.24,ESE,112,0.0,0.0,45,0.00,,,0.01,Wunderground v.1.13,2013-10-06 17:30:00,
2013-10-06 14:00:00,57.3,35.0,30.24,NNW,346,1.0,2.0,43,0.00,,,0.01,Wunderground v.1.13,2013-10-06 18:00:00,
2013-10-06 14:30:00,57.7,34.1,30.23,North,360,0.0,0.0,41,0.00,,,0.01,Wunderground v.1.13,2013-10-06 18:30:00,
2013-10-06 15:00:00,58.2,34.6,30.22,NNW,344,0.0,0.0,41,0.00,,,0.01,Wunderground v.1.13,2013-10-06 19:00:00,
2013-10-06 15:30:00,58.6,34.3,30.22,NNW,334,1.0,1.0,40,0.00,,,0.01,Wunderground v.1.13,2013-10-06 19:30:00,
2013-10-06 16:00:00,57.4,36.8,30.22,West,277,0.0,0.0,46,0.00,,,0.01,Wunderground v.1.13,2013-10-06 20:00:00,
2013-10-06 16:30:00,54.4,35.1,30.22,West,277,0.0,0.0,48,0.00,,,0.01,Wunderground v.1.13,2013-10-06 20:30:00,
2013-10-06 17:00:00,53.4,35.2,30.21,WNW,292,0.0,0.0,50,0.00,,,0.01,Wunderground v.1.13,2013-10-06 21:00:00,
2013-10-06 17:30:00,51.6,36.4,30.22,WNW,292,0.0,0.0,56,0.00,,,0.01,Wunderground v.1.13,2013-10-06 21:30:00,
2013-10-06 18:00:00,48.0,36.4,30.23,WNW,292,0.0,0.0,64,0.00,,,0.01,Wunderground v.1.13,2013-10-06 22:00:00,
2013-10-06 18:30:00,46.1,36.5,30.23,WNW,292,0.0,0.0,69,0.00,,,0.01,Wunderground v.1.13,2013-10-06 22:30:00,
2013-10-06 19:00:00,44.0,37.3,30.22,WNW,292,0.0,0.0,77,0.00,,,0.01,Wunderground v.1.13,2013-10-06 23:00:00,
2013-10-06 19:30:00,44.7,37.6,30.22,WNW,295,1.0,1.0,76,0.00,,,0.01,Wunderground v.1.13,2013-10-06 23:30:00,
2013-10-06 20:00:00,47.5,35.9,30.21,NW,315,0.0,0.0,64,0.00,,,0.01,Wunderground v.1.13,2013-10-07 00:00:00,
2013-10-06 20:30:00,47.8,37.0,30.22,NW,315,0.0,1.0,66,0.00,,,0.01,Wunderground v.1.13,2013-10-07 00:30:00,
2013-10-06 21:00:00,47.0,37.0,30.21,NW,317,0.0,0.0,68,0.00,,,0.01,Wunderground v.1.13,2013-10-07 01:00:00,
2013-10-06 21:30:00,46.7,37.1,30.20,NW,317,0.0,2.0,69,0.00,,,0.01,Wunderground v.1.13,2013-10-07 01:30:00,
2013-10-06 22:00:00,47.6,36.0,30.20,WNW,298,0.0,0.0,64,0.00,,,0.01,Wunderground v.1.13,2013-10-07 02:00:00,
2013-10-06 22:30:00,47.1,39.2,30.19,WNW,298,0.0,0.0,74,0.00,,,0.01,Wunderground v.1.13,2013-10-07 02:30:00,
2013-10-06 23:00:00,45.9,40.4,30.18,WNW,294,0.0,1.0,81,0.00,,,0.01,Wunderground v.1.13,2013-10-07 03:00:00,
2013-10-06 23:30:00,45.8,40.6,30.18,NNW,330,1.0,1.0,82,0.00,,,0.01,Wunderground v.1.13,2013-10-07 03:30:00,